Time;durP1;ratioP1;P1;durP2;ratioP2;P2;SDS_P1;SDS_P2;PMS_P1;PMS_P2;Temp;Humidity;BMP_temperature;BMP_pressure;BME280_temperature;BME280_humidity;BME280_pressure;Samples;Min_cycle;Max_cycle;Signal;HPM_P1;HPM_P2
2023/09/30 00:01:00;;;;;;;14.75;8.07;;;;;;;9.73;100.00;102414.84;6186336;23;20008;-69
2023/09/30 00:03:25;;;;;;;15.05;9.55;;;;;;;9.83;100.00;102427.22;6189344;23;20423;-69
2023/09/30 00:05:52;;;;;;;16.38;10.07;;;;;;;9.80;100.00;102437.66;6188676;23;20024;-70
2023/09/30 00:08:17;;;;;;;14.05;9.13;;;;;;;9.84;100.00;102429.88;6188878;23;20443;-70
2023/09/30 00:10:43;;;;;;;16.52;10.20;;;;;;;9.83;100.00;102432.47;6189132;23;20009;-69
2023/09/30 00:13:08;;;;;;;19.65;10.43;;;;;;;9.83;100.00;102428.09;6189568;23;20008;-69
2023/09/30 00:15:34;;;;;;;18.90;10.70;;;;;;;9.83;100.00;102428.09;6163269;23;20083;-69
2023/09/30 00:18:01;;;;;;;16.15;9.82;;;;;;;9.76;100.00;102426.22;6164418;23;20106;-70
2023/09/30 00:20:27;;;;;;;13.43;8.52;;;;;;;9.73;100.00;102435.78;6188652;23;20028;-69
2023/09/30 00:22:52;;;;;;;13.55;8.35;;;;;;;9.78;100.00;102444.59;6164359;23;20095;-69
2023/09/30 00:25:18;;;;;;;13.82;8.15;;;;;;;9.77;100.00;102437.56;6164192;23;20439;-69
2023/09/30 00:27:43;;;;;;;11.95;8.32;;;;;;;9.76;100.00;102433.22;6163684;23;20015;-70
2023/09/30 00:30:09;;;;;;;17.27;8.98;;;;;;;9.76;100.00;102430.59;6187998;23;20304;-69
2023/09/30 00:32:34;;;;;;;14.60;9.73;;;;;;;9.82;100.00;102442.03;6161346;23;20019;-69
2023/09/30 00:35:03;;;;;;;19.85;10.60;;;;;;;9.81;100.00;102439.41;6187640;23;20013;-69
2023/09/30 00:37:28;;;;;;;17.27;12.10;;;;;;;9.79;100.00;102433.25;6163193;23;20016;-69
2023/09/30 00:39:55;;;;;;;17.63;11.07;;;;;;;9.81;100.00;102440.28;6188836;23;20312;-69
2023/09/30 00:42:21;;;;;;;13.90;8.60;;;;;;;9.76;100.00;102441.06;6188076;23;20078;-69
2023/09/30 00:44:47;;;;;;;13.02;8.77;;;;;;;9.85;100.00;102459.53;6188220;23;20012;-69
2023/09/30 00:47:14;;;;;;;13.38;8.90;;;;;;;9.88;100.00;102467.44;6186622;23;20019;-69
2023/09/30 00:49:43;;;;;;;18.08;9.95;;;;;;;9.88;100.00;102467.44;6188273;23;20009;-70
2023/09/30 00:52:10;;;;;;;18.15;11.68;;;;;;;9.91;100.00;102467.50;6164246;23;20316;-69
2023/09/30 00:54:39;;;;;;;18.13;11.32;;;;;;;9.87;100.00;102460.47;6188455;23;20105;-70
2023/09/30 00:57:05;;;;;;;19.40;11.80;;;;;;;9.82;100.00;102457.75;6162998;23;20409;-69
2023/09/30 00:59:32;;;;;;;20.02;11.50;;;;;;;9.76;100.00;102446.31;6187703;23;20036;-69
2023/09/30 01:01:59;;;;;;;15.43;10.50;;;;;;;9.75;100.00;102448.03;6187432;23;20018;-69
2023/09/30 01:04:26;;;;;;;15.65;10.63;;;;;;;9.74;100.00;102448.00;6188222;23;20025;-70
2023/09/30 01:06:52;;;;;;;18.75;12.73;;;;;;;9.85;100.00;102444.69;6187715;23;20004;-70
2023/09/30 01:09:17;;;;;;;16.23;11.35;;;;;;;9.86;100.00;102440.38;6188436;23;20139;-69
2023/09/30 01:11:44;;;;;;;17.27;11.23;;;;;;;9.84;100.00;102463.00;6162980;23;20411;-69
2023/09/30 01:14:30;;;;;;;16.60;12.05;;;;;;;9.89;100.00;102469.22;6188385;23;20062;-69
2023/09/30 01:16:58;;;;;;;17.80;11.88;;;;;;;9.74;100.00;102468.94;6186783;23;20446;-69
2023/09/30 01:19:24;;;;;;;15.32;11.57;;;;;;;9.69;100.00;102467.13;6188499;23;20388;-69
2023/09/30 01:21:56;;;;;;;19.60;11.68;;;;;;;9.71;100.00;102467.16;6163294;23;20008;-69
2023/09/30 01:24:22;;;;;;;15.23;9.43;;;;;;;9.77;100.00;102461.13;6188402;23;20051;-70
2023/09/30 01:26:48;;;;;;;12.88;9.60;;;;;;;9.78;100.00;102482.09;6187443;23;20366;-70
2023/09/30 01:29:14;;;;;;;16.42;11.00;;;;;;;9.78;100.00;102496.94;6187735;23;20009;-69
2023/09/30 01:31:39;;;;;;;13.60;9.32;;;;;;;9.67;100.00;102495.03;6161485;23;20016;-69
2023/09/30 01:34:05;;;;;;;14.43;10.38;;;;;;;9.67;100.00;102500.25;6163584;23;20017;-70
2023/09/30 01:36:31;;;;;;;14.00;10.77;;;;;;;9.64;100.00;102494.97;6187945;23;20015;-69
2023/09/30 01:38:57;;;;;;;19.63;11.95;;;;;;;9.53;100.00;102486.91;6188171;23;20028;-70
2023/09/30 01:41:23;;;;;;;16.67;11.68;;;;;;;9.58;100.00;102486.09;6187575;23;20004;-69
2023/09/30 01:43:49;;;;;;;17.65;13.07;;;;;;;9.59;100.00;102491.38;6187242;23;20008;-69
2023/09/30 01:46:15;;;;;;;21.50;14.50;;;;;;;9.69;100.00;102487.19;6186713;23;20019;-70
2023/09/30 01:48:40;;;;;;;21.98;12.20;;;;;;;9.59;100.00;102490.50;6163199;23;20020;-70
2023/09/30 01:51:06;;;;;;;19.10;12.80;;;;;;;9.52;100.00;102487.78;6187763;23;20454;-70
2023/09/30 01:53:32;;;;;;;68.88;15.18;;;;;;;9.35;100.00;102466.50;6163549;23;20004;-69
2023/09/30 01:55:57;;;;;;;18.95;11.68;;;;;;;9.35;100.00;102458.66;6186995;23;20013;-70
2023/09/30 01:58:23;;;;;;;20.50;13.02;;;;;;;9.41;100.00;102454.38;6187476;23;20442;-70
2023/09/30 02:00:48;;;;;;;21.98;15.63;;;;;;;9.55;100.00;102465.97;6187014;23;20005;-69
2023/09/30 02:03:14;;;;;;;17.08;13.15;;;;;;;9.51;100.00;102469.41;6187659;23;20016;-70
2023/09/30 02:05:43;;;;;;;14.57;11.35;;;;;;;9.48;100.00;102466.72;6157717;23;20029;-69
2023/09/30 02:08:08;;;;;;;16.52;11.95;;;;;;;9.49;100.00;102472.00;6133565;23;20020;-69
2023/09/30 02:10:36;;;;;;;18.35;13.25;;;;;;;9.45;100.00;102466.66;6157670;23;20396;-70
2023/09/30 02:13:05;;;;;;;16.42;11.90;;;;;;;9.47;100.00;102460.63;6157354;23;20359;-69
2023/09/30 02:15:31;;;;;;;16.58;12.60;;;;;;;9.47;100.00;102459.75;6156567;23;20013;-69
2023/09/30 02:17:57;;;;;;;19.75;11.85;;;;;;;9.47;100.00;102480.69;6157804;23;20105;-70
2023/09/30 02:20:25;;;;;;;18.23;13.38;;;;;;;9.49;100.00;102489.44;6133342;23;20016;-69
2023/09/30 02:22:52;;;;;;;15.85;11.38;;;;;;;9.47;100.00;102499.00;6157781;23;20013;-70
2023/09/30 02:25:17;;;;;;;16.17;12.35;;;;;;;9.42;100.00;102492.78;6156600;23;20458;-70
2023/09/30 02:27:43;;;;;;;14.35;10.80;;;;;;;9.34;100.00;102497.88;6132616;23;20013;-69
2023/09/30 02:30:10;;;;;;;13.70;9.98;;;;;;;9.25;100.00;102495.97;6157037;23;20025;-69
2023/09/30 02:32:43;;;;;;;14.15;11.13;;;;;;;9.45;100.00;102492.84;6132700;23;20009;-69
2023/09/30 02:35:12;;;;;;;14.05;12.15;;;;;;;9.43;100.00;102495.44;6156732;23;20019;-69
2023/09/30 02:37:38;;;;;;;15.02;11.98;;;;;;;9.41;100.00;102475.31;6157348;23;20059;-70
2023/09/30 02:40:05;;;;;;;16.40;13.90;;;;;;;9.43;100.00;102478.84;6157881;23;20095;-69
2023/09/30 02:42:31;;;;;;;20.23;15.38;;;;;;;9.51;100.00;102490.31;6156541;23;20009;-70
2023/09/30 02:45:00;;;;;;;20.52;16.10;;;;;;;9.58;100.00;102493.97;6157016;23;20100;-69
2023/09/30 02:47:25;;;;;;;22.92;18.05;;;;;;;9.73;100.00;102486.41;6154210;23;20432;-70
2023/09/30 02:49:52;;;;;;;25.85;18.45;;;;;;;9.79;100.00;102475.16;6156681;23;20058;-69
2023/09/30 02:52:17;;;;;;;24.33;17.70;;;;;;;9.80;100.00;102474.31;6157662;23;20045;-69
2023/09/30 02:54:42;;;;;;;20.75;15.88;;;;;;;9.77;100.00;102466.38;6157111;23;20008;-69
2023/09/30 02:57:09;;;;;;;25.35;18.42;;;;;;;9.80;100.00;102464.72;6157546;23;20012;-70
2023/09/30 02:59:36;;;;;;;20.92;17.02;;;;;;;9.77;100.00;102469.00;6155971;23;20009;-70
2023/09/30 03:02:01;;;;;;;27.15;17.70;;;;;;;9.84;100.00;102468.25;6156509;23;20084;-70
2023/09/30 03:04:28;;;;;;;23.73;18.30;;;;;;;9.88;100.00;102462.22;6141947;23;20564;-70
2023/09/30 03:06:56;;;;;;;24.17;17.92;;;;;;;9.87;100.00;102463.09;6187185;23;20087;-70
2023/09/30 03:09:22;;;;;;;20.60;15.73;;;;;;;9.78;100.00;102476.88;6187640;23;20082;-70
2023/09/30 03:11:48;;;;;;;20.85;15.52;;;;;;;9.69;100.00;102469.75;6187000;23;20387;-70
2023/09/30 03:14:13;;;;;;;21.70;14.48;;;;;;;9.67;100.00;102479.31;6186553;23;20134;-69
2023/09/30 03:16:41;;;;;;;17.95;14.35;;;;;;;9.63;100.00;102474.00;6185601;23;20020;-69
2023/09/30 03:19:08;;;;;;;19.73;15.10;;;;;;;9.62;100.00;102473.09;6186909;23;20015;-69
2023/09/30 03:21:35;;;;;;;19.85;14.10;;;;;;;9.54;100.00;102470.34;6187043;23;20004;-69
2023/09/30 03:24:02;;;;;;;13.35;11.05;;;;;;;9.45;100.00;102478.03;6162094;23;20505;-69
2023/09/30 03:26:31;;;;;;;17.67;12.40;;;;;;;9.46;100.00;102484.16;6187174;23;20095;-69
2023/09/30 03:28:57;;;;;;;16.45;12.70;;;;;;;9.46;100.00;102478.91;6161763;23;20005;-69
2023/09/30 03:31:22;;;;;;;25.40;15.73;;;;;;;9.62;100.00;102470.47;6160838;23;20082;-69
2023/09/30 03:33:51;;;;;;;21.33;16.75;;;;;;;9.71;100.00;102465.44;6162140;23;20032;-70
2023/09/30 03:36:16;;;;;;;25.83;16.77;;;;;;;9.74;100.00;102453.22;6186603;23;20399;-70
2023/09/30 03:38:44;;;;;;;23.45;16.13;;;;;;;9.78;100.00;102452.44;6162895;23;20032;-70
2023/09/30 03:41:13;;;;;;;20.73;14.68;;;;;;;9.71;100.00;102460.19;6161993;23;20004;-69
2023/09/30 03:43:41;;;;;;;22.88;16.10;;;;;;;9.71;100.00;102462.81;6186067;23;20043;-69
2023/09/30 03:46:07;;;;;;;21.90;15.65;;;;;;;9.67;100.00;102462.72;6161599;23;20028;-69
2023/09/30 03:48:38;;;;;;;20.55;16.33;;;;;;;9.64;100.00;102462.66;6162018;23;20086;-69
2023/09/30 03:51:14;;;;;;;22.55;16.30;;;;;;;9.64;100.00;102467.88;6163437;23;20355;-69
2023/09/30 03:53:43;;;;;;;18.83;14.80;;;;;;;9.61;100.00;102473.97;6162194;23;20403;-69
2023/09/30 03:56:14;;;;;;;19.90;14.00;;;;;;;9.58;100.00;102473.03;6185656;23;20009;-69
2023/09/30 03:58:41;;;;;;;21.02;14.82;;;;;;;9.44;100.00;102455.34;6185821;23;20086;-69
2023/09/30 04:01:07;;;;;;;20.58;14.82;;;;;;;9.48;100.00;102464.09;6161502;23;20092;-69
2023/09/30 04:03:33;;;;;;;24.10;16.80;;;;;;;9.58;100.00;102467.78;6186935;23;20005;-69
2023/09/30 04:05:59;;;;;;;24.00;17.42;;;;;;;9.59;100.00;102459.09;6162238;23;20418;-69
2023/09/30 04:08:24;;;;;;;19.73;15.23;;;;;;;9.49;100.00;102469.38;6187091;23;20036;-69
2023/09/30 04:10:50;;;;;;;20.38;15.45;;;;;;;9.39;100.00;102461.34;6162226;23;20159;-69
2023/09/30 04:13:15;;;;;;;21.48;16.45;;;;;;;9.48;100.00;102461.50;6186481;23;20008;-70
2023/09/30 04:15:41;;;;;;;23.17;16.15;;;;;;;9.47;100.00;102460.63;6186124;23;20015;-69
2023/09/30 04:18:06;;;;;;;18.00;14.23;;;;;;;9.47;100.00;102462.38;6186747;23;20012;-69
2023/09/30 04:20:31;;;;;;;20.23;16.00;;;;;;;9.41;100.00;102470.06;6162345;23;20009;-69
2023/09/30 04:22:57;;;;;;;20.33;15.93;;;;;;;9.44;100.00;102471.03;6162220;23;20036;-69
2023/09/30 04:25:26;;;;;;;22.27;16.25;;;;;;;9.45;100.00;102457.09;6162172;23;20386;-69
2023/09/30 04:27:52;;;;;;;23.83;16.65;;;;;;;9.47;100.00;102454.53;6185719;23;20000;-70
2023/09/30 04:30:18;;;;;;;20.73;15.25;;;;;;;9.42;100.00;102471.84;6162122;23;20016;-70
2023/09/30 04:32:44;;;;;;;22.58;17.02;;;;;;;9.45;100.00;102472.81;6162030;23;20008;-69
2023/09/30 04:35:10;;;;;;;23.35;17.90;;;;;;;9.52;100.00;102468.56;6186861;23;20327;-69
2023/09/30 04:37:37;;;;;;;18.17;14.50;;;;;;;9.40;100.00;102468.34;6187177;23;20000;-69
2023/09/30 04:40:09;;;;;;;19.73;16.00;;;;;;;9.38;100.00;102470.03;6187436;23;20004;-69
2023/09/30 04:42:38;;;;;;;27.58;17.92;;;;;;;9.45;100.00;102461.44;6185621;23;20004;-69
2023/09/30 04:45:07;;;;;;;26.33;18.58;;;;;;;9.45;100.00;102471.91;6162081;23;20015;-70
2023/09/30 04:47:33;;;;;;;26.00;18.95;;;;;;;9.44;100.00;102480.59;6186046;23;20009;-69
2023/09/30 04:49:58;;;;;;;21.38;17.17;;;;;;;9.39;100.00;102483.13;6163526;23;20616;-70
2023/09/30 04:52:27;;;;;;;20.15;14.27;;;;;;;9.32;100.00;102497.84;6188507;23;20004;-69
2023/09/30 04:54:54;;;;;;;20.58;14.65;;;;;;;9.26;100.00;102492.47;6188866;23;20013;-69
2023/09/30 04:57:20;;;;;;;143.05;23.38;;;;;;;9.15;100.00;102491.38;6163238;23;20036;-69
2023/09/30 04:59:46;;;;;;;186.57;21.33;;;;;;;9.06;100.00;102485.97;6163904;23;20466;-69
2023/09/30 05:02:14;;;;;;;26.65;16.15;;;;;;;9.09;100.00;102492.13;6163807;23;20434;-69
2023/09/30 05:04:40;;;;;;;23.85;16.95;;;;;;;9.12;100.00;102491.31;6158700;23;20313;-69
2023/09/30 05:07:06;;;;;;;22.65;17.52;;;;;;;9.05;100.00;102489.41;6134328;23;20031;-70
2023/09/30 05:09:31;;;;;;;24.80;16.27;;;;;;;9.08;100.00;102498.22;6134645;23;20035;-70
2023/09/30 05:11:57;;;;;;;21.88;15.73;;;;;;;9.01;100.00;102498.94;6134315;23;20009;-69
2023/09/30 05:14:23;;;;;;;18.00;13.52;;;;;;;8.98;100.00;102491.03;6134260;23;20383;-70
2023/09/30 05:16:49;;;;;;;11.43;10.23;;;;;;;8.92;100.00;102497.03;6158041;23;20451;-70
2023/09/30 05:19:15;;;;;;;46.92;14.32;;;;;;;8.91;100.00;102500.47;6185315;23;20080;-70
2023/09/30 05:21:41;;;;;;;18.70;14.88;;;;;;;8.95;100.00;102506.63;6133661;23;20088;-70
2023/09/30 05:24:07;;;;;;;16.73;12.27;;;;;;;8.92;100.00;102499.63;6158612;23;20088;-70
2023/09/30 05:26:35;;;;;;;17.73;14.57;;;;;;;8.88;100.00;102499.50;6158512;23;20040;-70
2023/09/30 05:29:00;;;;;;;47.95;16.33;;;;;;;8.90;100.00;102503.06;6184603;23;20408;-69
2023/09/30 05:31:26;;;;;;;101.00;15.88;;;;;;;8.84;100.00;102514.25;6157367;23;20012;-70
2023/09/30 05:33:51;;;;;;;22.50;14.40;;;;;;;8.88;100.00;102510.88;6158378;23;20013;-69
2023/09/30 05:36:17;;;;;;;22.88;16.73;;;;;;;8.86;100.00;102502.09;6133487;23;20020;-70
2023/09/30 05:38:42;;;;;;;63.55;20.40;;;;;;;8.90;100.00;102503.94;6183786;23;20117;-69
2023/09/30 05:41:08;;;;;;;50.33;19.92;;;;;;;8.83;100.00;102502.03;6133694;23;20016;-70
2023/09/30 05:43:33;;;;;;;21.50;16.70;;;;;;;8.84;100.00;102502.06;6133327;23;20005;-69
2023/09/30 05:45:59;;;;;;;29.60;19.00;;;;;;;8.89;100.00;102509.13;6157043;23;20085;-69
2023/09/30 05:48:24;;;;;;;27.55;19.83;;;;;;;8.93;100.00;102517.06;6132774;23;20100;-69
2023/09/30 05:50:52;;;;;;;28.90;19.75;;;;;;;8.99;100.00;102519.84;6133399;23;20016;-69
2023/09/30 05:53:18;;;;;;;28.17;19.50;;;;;;;9.02;100.00;102517.28;6158348;23;20347;-69
2023/09/30 05:55:45;;;;;;;54.42;20.25;;;;;;;8.90;100.00;102517.00;6157400;23;20009;-69
2023/09/30 05:58:14;;;;;;;21.95;16.15;;;;;;;8.85;100.00;102513.41;6132549;23;20016;-69
2023/09/30 06:00:41;;;;;;;25.80;18.50;;;;;;;9.01;100.00;102518.13;6157613;23;20068;-69
2023/09/30 06:03:07;;;;;;;28.23;20.05;;;;;;;9.15;100.00;102522.75;6157628;23;20013;-70
2023/09/30 06:05:34;;;;;;;31.88;21.42;;;;;;;9.24;100.00;102520.34;6153006;23;20025;-70
2023/09/30 06:08:03;;;;;;;29.73;22.38;;;;;;;9.49;100.00;102531.31;6160711;23;20404;-70
2023/09/30 06:10:29;;;;;;;29.67;22.23;;;;;;;9.57;100.00;102523.59;6188211;23;20005;-70
2023/09/30 06:12:56;;;;;;;24.70;19.20;;;;;;;9.57;100.00;102527.09;6187417;23;20419;-70
2023/09/30 06:15:28;;;;;;;24.48;19.27;;;;;;;9.88;100.00;102525.06;6187580;23;20430;-69
2023/09/30 06:17:54;;;;;;;20.88;16.77;;;;;;;10.25;100.00;102516.97;6163192;23;20012;-69
2023/09/30 06:20:22;;;;;;;22.27;15.85;;;;;;;10.80;100.00;102520.44;6213068;23;20000;-70
2023/09/30 06:22:51;;;;;;;18.17;15.50;;;;;;;11.32;100.00;102525.53;6187683;23;20012;-69
2023/09/30 06:25:17;;;;;;;17.65;12.93;;;;;;;11.65;100.00;102524.16;6188960;23;20035;-70
2023/09/30 06:27:47;;;;;;;15.73;12.85;;;;;;;12.23;100.00;102528.22;6162310;23;20021;-69
2023/09/30 06:30:15;;;;;;;15.88;12.43;;;;;;;12.64;100.00;102522.38;6162973;23;20009;-70
2023/09/30 06:32:41;;;;;;;18.02;11.63;;;;;;;13.12;100.00;102520.88;6187908;23;20015;-70
2023/09/30 06:35:10;;;;;;;13.95;11.10;;;;;;;12.92;100.00;102512.03;6188751;23;20004;-69
2023/09/30 06:37:37;;;;;;;16.20;12.10;;;;;;;12.71;100.00;102512.78;6187428;23;20024;-69
2023/09/30 06:40:04;;;;;;;15.75;12.02;;;;;;;12.95;100.00;102519.94;6162750;23;20296;-69
2023/09/30 06:42:31;;;;;;;15.88;12.07;;;;;;;13.30;100.00;102532.38;6186603;23;20035;-70
2023/09/30 06:44:57;;;;;;;16.02;12.32;;;;;;;13.40;100.00;102526.28;6162594;23;20009;-69
2023/09/30 06:47:23;;;;;;;15.68;12.25;;;;;;;13.78;100.00;102529.94;6186669;23;20012;-69
2023/09/30 06:49:49;;;;;;;15.30;11.95;;;;;;;14.23;99.63;102525.56;6162812;23;20004;-69
2023/09/30 06:52:15;;;;;;;13.77;11.38;;;;;;;14.35;97.11;102533.47;6186766;23;20047;-69
2023/09/30 06:54:40;;;;;;;13.93;11.27;;;;;;;15.17;93.70;102543.00;6162300;23;20043;-69
2023/09/30 06:57:05;;;;;;;15.00;10.50;;;;;;;16.87;89.60;102550.63;6162019;23;20054;-69
2023/09/30 06:59:34;;;;;;;13.40;10.30;;;;;;;17.31;81.88;102562.50;6211527;23;20331;-69
2023/09/30 07:01:59;;;;;;;13.85;9.15;;;;;;;17.95;77.87;102574.91;6186624;23;20087;-69
2023/09/30 07:04:26;;;;;;;14.55;9.25;;;;;;;19.28;76.99;102581.44;6187283;23;20083;-69
2023/09/30 07:06:53;;;;;;;11.00;8.65;;;;;;;20.53;73.14;102585.66;6187144;23;20004;-69
2023/09/30 07:09:19;;;;;;;13.10;8.63;;;;;;;21.28;69.84;102598.78;6211970;23;20004;-69
2023/09/30 07:11:45;;;;;;;11.57;8.20;;;;;;;21.24;66.47;102587.31;6186894;23;20017;-69
2023/09/30 07:14:10;;;;;;;10.90;9.02;;;;;;;20.87;64.16;102587.47;6161997;23;20096;-69
2023/09/30 07:16:36;;;;;;;12.00;8.80;;;;;;;20.32;67.72;102587.97;6186015;23;20457;-69
2023/09/30 07:19:02;;;;;;;12.98;8.80;;;;;;;19.46;69.13;102574.84;6186872;23;20012;-70
2023/09/30 07:21:28;;;;;;;12.25;9.02;;;;;;;19.69;70.50;102574.34;6162610;23;20012;-69
2023/09/30 07:23:53;;;;;;;12.35;8.75;;;;;;;19.99;73.03;102577.22;6186885;23;20016;-69
2023/09/30 07:26:24;;;;;;;14.40;8.85;;;;;;;19.18;72.45;102582.53;6187000;23;20335;-69
2023/09/30 07:28:49;;;;;;;13.27;9.70;;;;;;;20.04;71.73;102588.66;6186470;23;20004;-69
2023/09/30 07:31:14;;;;;;;14.93;9.68;;;;;;;19.03;72.57;102595.19;6161091;23;20063;-69
2023/09/30 07:33:40;;;;;;;10.63;8.82;;;;;;;20.80;72.25;102617.84;6187130;23;20012;-69
2023/09/30 07:36:05;;;;;;;12.90;8.70;;;;;;;21.03;70.21;102620.78;6161421;23;20145;-69
2023/09/30 07:38:31;;;;;;;12.27;9.68;;;;;;;20.99;67.83;102627.13;6162302;23;20070;-69
2023/09/30 07:40:59;;;;;;;12.77;9.13;;;;;;;20.86;71.12;102634.56;6161952;23;20012;-69
2023/09/30 07:43:25;;;;;;;13.85;9.60;;;;;;;20.93;71.34;102632.59;6186255;23;20008;-69
2023/09/30 07:45:50;;;;;;;12.52;9.65;;;;;;;20.96;69.41;102635.19;6160499;23;20005;-69
2023/09/30 07:48:16;;;;;;;14.73;9.32;;;;;;;21.68;66.20;102634.06;6186054;23;20013;-70
2023/09/30 07:50:42;;;;;;;14.02;9.13;;;;;;;22.67;63.00;102631.84;6186354;23;20020;-70
2023/09/30 07:53:08;;;;;;;11.93;8.68;;;;;;;23.50;60.60;102627.97;6185972;23;20381;-70
2023/09/30 07:55:54;;;;;;;13.90;8.52;;;;;;;23.94;64.70;102627.22;6186639;23;20082;-70
2023/09/30 07:58:20;;;;;;;11.70;8.38;;;;;;;22.76;61.05;102627.97;6186433;23;20084;-70
2023/09/30 08:00:46;;;;;;;14.38;7.93;;;;;;;22.66;63.54;102624.72;6161123;23;20450;-70
2023/09/30 08:03:11;;;;;;;13.50;8.32;;;;;;;22.46;63.29;102615.59;6186360;23;20010;-70
2023/09/30 08:05:37;;;;;;;12.82;8.05;;;;;;;22.69;63.60;102615.75;6186373;23;20447;-71
2023/09/30 08:08:03;;;;;;;14.07;7.93;;;;;;;22.81;65.04;102616.19;6186491;23;20016;-70
2023/09/30 08:10:32;;;;;;;12.73;8.15;;;;;;;23.49;63.78;102613.72;6186982;23;20012;-70
2023/09/30 08:13:01;;;;;;;14.98;7.65;;;;;;;22.90;63.72;102623.00;6185879;23;20265;-70
2023/09/30 08:15:27;;;;;;;13.50;8.13;;;;;;;22.30;64.64;102623.22;6186071;23;20083;-70
2023/09/30 08:17:52;;;;;;;16.60;8.05;;;;;;;21.61;68.40;102612.06;6186330;23;20379;-71
2023/09/30 08:20:18;;;;;;;13.18;7.25;;;;;;;21.48;67.18;102602.63;6186701;23;20013;-71
2023/09/30 08:22:44;;;;;;;13.10;7.80;;;;;;;21.22;68.68;102609.59;6160415;23;20017;-70
2023/09/30 08:25:13;;;;;;;15.75;8.00;;;;;;;21.00;69.45;102604.00;6188545;23;20005;-71
2023/09/30 08:27:42;;;;;;;12.57;7.50;;;;;;;20.59;70.13;102605.03;6188036;23;20459;-70
2023/09/30 08:30:07;;;;;;;14.48;7.80;;;;;;;20.56;72.39;102604.25;6188384;23;20016;-70
2023/09/30 08:32:36;;;;;;;11.77;8.02;;;;;;;20.11;73.62;102608.00;6162438;23;20015;-71
2023/09/30 08:35:04;;;;;;;14.27;7.85;;;;;;;19.99;72.89;102593.19;6188578;23;20139;-71
2023/09/30 08:37:31;;;;;;;14.30;7.43;;;;;;;20.05;74.27;102594.84;6187866;23;20348;-71
2023/09/30 08:39:57;;;;;;;14.60;8.65;;;;;;;19.73;74.88;102596.44;6187817;23;20500;-71
2023/09/30 08:42:24;;;;;;;15.30;8.15;;;;;;;19.36;75.57;102592.75;6187617;23;20038;-71
2023/09/30 08:44:53;;;;;;;15.73;7.50;;;;;;;19.14;76.48;102587.03;6187952;23;20433;-71
2023/09/30 08:47:20;;;;;;;13.35;7.00;;;;;;;19.65;77.64;102587.75;6187784;23;20005;-71
2023/09/30 08:49:48;;;;;;;11.52;6.18;;;;;;;21.20;69.87;102590.09;6188382;23;20100;-71
2023/09/30 08:52:14;;;;;;;12.43;6.85;;;;;;;21.89;66.33;102595.19;6188636;23;20016;-71
2023/09/30 08:54:40;;;;;;;12.55;7.00;;;;;;;20.90;65.93;102587.38;6188053;23;20478;-71
2023/09/30 08:57:09;;;;;;;14.38;7.05;;;;;;;20.17;69.27;102589.22;6188132;23;20009;-71
2023/09/30 08:59:35;;;;;;;12.00;6.93;;;;;;;20.55;71.64;102586.50;6187746;23;20011;-70
2023/09/30 09:02:01;;;;;;;12.68;7.63;;;;;;;20.49;70.45;102582.22;6187736;23;20107;-70
2023/09/30 09:04:27;;;;;;;13.43;7.90;;;;;;;20.41;71.15;102600.16;6162795;23;20067;-71
2023/09/30 09:06:55;;;;;;;11.93;7.72;;;;;;;20.38;72.97;102589.59;6188190;23;20424;-71
2023/09/30 09:09:22;;;;;;;12.00;7.07;;;;;;;19.99;69.28;102590.53;6163801;23;20009;-71
2023/09/30 09:11:48;;;;;;;12.07;7.57;;;;;;;19.98;70.96;102594.09;6186744;23;20009;-71
2023/09/30 09:14:14;;;;;;;12.95;7.18;;;;;;;19.97;73.33;102603.00;6185036;23;20015;-71
2023/09/30 09:16:54;;;;;;;12.27;6.97;;;;;;;20.33;73.53;102619.00;6186929;23;20015;-71
2023/09/30 09:19:23;;;;;;;14.35;7.20;;;;;;;20.30;74.69;102616.44;6188322;23;20001;-71
2023/09/30 09:21:57;;;;;;;11.20;6.72;;;;;;;20.37;75.72;102620.69;6187908;23;20008;-70
2023/09/30 09:24:38;;;;;;;11.40;7.28;;;;;;;20.54;75.16;102620.28;6187585;23;20332;-70
2023/09/30 09:27:16;;;;;;;11.82;7.10;;;;;;;20.49;73.59;102618.63;6186957;23;20009;-70
2023/09/30 09:29:44;;;;;;;11.57;6.28;;;;;;;20.34;72.50;102622.53;6187643;23;20066;-71
2023/09/30 09:32:16;;;;;;;13.75;6.75;;;;;;;20.22;71.73;102631.69;6187444;23;20565;-70
2023/09/30 09:34:45;;;;;;;9.57;5.97;;;;;;;20.38;72.95;102629.53;6187547;23;20005;-71
2023/09/30 09:37:18;;;;;;;11.40;5.82;;;;;;;20.49;71.07;102647.94;6187124;23;20013;-71
2023/09/30 09:39:57;;;;;;;13.65;6.45;;;;;;;20.58;73.72;102659.19;6188036;23;20372;-70
2023/09/30 09:42:32;;;;;;;10.80;5.30;;;;;;;20.42;70.82;102658.72;6187527;23;20004;-70
2023/09/30 09:45:01;;;;;;;11.85;5.63;;;;;;;20.46;70.34;102651.53;6187205;23;20371;-70
2023/09/30 09:47:31;;;;;;;11.98;5.50;;;;;;;20.63;71.79;102648.47;6186758;23;20019;-70
2023/09/30 09:49:57;;;;;;;9.95;5.18;;;;;;;20.81;71.45;102651.59;6187897;23;20004;-71
2023/09/30 09:52:24;;;;;;;11.13;5.25;;;;;;;21.13;67.08;102648.03;6187732;23;20001;-70
2023/09/30 09:54:51;;;;;;;8.20;4.65;;;;;;;21.12;68.08;102648.97;6187826;23;20000;-71
2023/09/30 09:57:18;;;;;;;11.18;5.75;;;;;;;20.82;66.46;102648.88;6187446;23;20005;-70
2023/09/30 09:59:48;;;;;;;8.35;5.28;;;;;;;20.87;67.14;102643.44;6186583;23;20442;-70
2023/09/30 10:02:15;;;;;;;9.60;5.00;;;;;;;20.96;68.92;102651.19;6186226;23;20004;-71
2023/09/30 10:04:45;;;;;;;10.43;5.22;;;;;;;21.14;70.78;102654.28;6187603;23;20017;-70
2023/09/30 10:07:16;;;;;;;10.13;5.25;;;;;;;20.92;68.55;102649.53;6187622;23;20004;-70
2023/09/30 10:09:47;;;;;;;10.38;5.38;;;;;;;20.92;67.46;102655.72;6212995;23;20027;-70
2023/09/30 10:12:15;;;;;;;9.18;5.15;;;;;;;20.85;68.79;102661.25;6186219;23;20023;-70
2023/09/30 10:14:41;;;;;;;8.95;4.60;;;;;;;20.79;67.77;102659.63;6184428;23;20039;-70
2023/09/30 10:17:07;;;;;;;9.93;5.43;;;;;;;20.51;65.44;102662.94;6186657;23;20016;-70
2023/09/30 10:19:32;;;;;;;10.77;5.65;;;;;;;20.63;66.51;102664.44;6187413;23;20013;-70
2023/09/30 10:22:19;;;;;;;10.90;5.38;;;;;;;20.62;69.02;102676.00;6162661;23;20013;-70
2023/09/30 10:24:46;;;;;;;11.98;6.38;;;;;;;20.51;67.87;102670.06;6187655;23;20019;-70
2023/09/30 10:27:33;;;;;;;11.40;6.18;;;;;;;20.73;67.01;102676.63;6186595;23;20000;-70
2023/09/30 10:30:01;;;;;;;11.38;5.85;;;;;;;20.63;68.51;102651.13;6186880;23;20004;-70
2023/09/30 10:32:51;;;;;;;10.48;5.43;;;;;;;20.92;68.42;102650.38;6186846;23;20062;-71
2023/09/30 10:35:17;;;;;;;10.23;5.95;;;;;;;20.75;67.92;102636.63;6187191;23;20004;-70
2023/09/30 10:37:44;;;;;;;11.80;5.78;;;;;;;21.13;67.76;102631.19;6187296;23;20012;-69
2023/09/30 10:40:26;;;;;;;10.25;5.55;;;;;;;21.95;65.83;102635.91;6187704;23;20028;-71
2023/09/30 10:42:54;;;;;;;10.32;6.55;;;;;;;22.05;61.00;102622.25;6184999;23;20083;-70
2023/09/30 10:45:38;;;;;;;10.55;6.13;;;;;;;21.88;63.61;102628.13;6186349;23;20439;-71
2023/09/30 10:48:26;;;;;;;12.45;6.35;;;;;;;21.79;64.28;102621.28;6185960;23;20008;-71
2023/09/30 10:50:58;;;;;;;10.05;5.57;;;;;;;21.50;64.75;102612.34;6187449;23;20015;-71
2023/09/30 10:53:27;;;;;;;10.80;5.63;;;;;;;21.57;65.16;102615.72;6186771;23;20103;-70
2023/09/30 10:55:57;;;;;;;12.05;6.70;;;;;;;21.15;64.21;102614.25;6187168;23;20494;-71
2023/09/30 10:58:38;;;;;;;;;;;;;;;21.86;64.08;102621.97;6187386;23;20070;-71
2023/09/30 11:01:06;;;;;;;8.57;5.50;;;;;;;20.79;62.62;102606.34;6186469;23;19910;-71
2023/09/30 11:03:32;;;;;;;9.25;5.72;;;;;;;20.33;62.29;102607.47;6187272;23;20012;-71
2023/09/30 11:05:58;;;;;;;8.88;5.30;;;;;;;20.15;63.75;102599.03;6162223;23;20378;-71
2023/09/30 11:08:24;;;;;;;12.10;5.03;;;;;;;19.83;65.85;102610.44;6186355;23;20011;-71
2023/09/30 11:10:51;;;;;;;10.20;5.15;;;;;;;19.71;65.43;102609.75;6162761;23;20025;-71
2023/09/30 11:13:17;;;;;;;11.95;5.97;;;;;;;19.55;66.50;102601.25;6186443;23;20059;-71